Time;durP1;ratioP1;P1;durP2;ratioP2;P2;SDS_P1;SDS_P2;PMS_P1;PMS_P2;Temp;Humidity;BMP_temperature;BMP_pressure;BME280_temperature;BME280_humidity;BME280_pressure;Samples;Min_cycle;Max_cycle;Signal;HPM_P1;HPM_P2
2024/04/18 00:02:22;;;;;;;2.63;1.23;;;;;;;;;;4325674;32;317185;-81
2024/04/18 00:04:50;;;;;;;2.40;1.73;;;;;;;;;;4338116;32;317148;-81
2024/04/18 00:07:16;;;;;;;4.00;1.70;;;;;;;;;;4327269;32;317098;-80
2024/04/18 00:09:43;;;;;;;2.62;1.80;;;;;;;;;;4328046;32;317282;-79
2024/04/18 00:12:10;;;;;;;1.47;1.37;;;;;;;;;;4333388;32;316788;-79
2024/04/18 00:14:38;;;;;;;1.87;1.57;;;;;;;;;;4323833;32;316528;-79
2024/04/18 00:17:05;;;;;;;5.45;2.42;;;;;;;;;;4345297;32;317464;-79
2024/04/18 00:19:34;;;;;;;3.17;1.58;;;;;;;;;;4331626;32;317296;-80
2024/04/18 00:22:04;;;;;;;3.53;2.10;;;;;;;;;;4348775;32;317717;-79
2024/04/18 00:24:32;;;;;;;3.13;1.87;;;;;;;;;;4338707;32;317214;-80
2024/04/18 00:26:59;;;;;;;1.90;1.37;;;;;;;;;;4347623;32;317147;-80
2024/04/18 00:29:28;;;;;;;1.73;1.33;;;;;;;;;;4339157;32;321760;-80
2024/04/18 00:31:56;;;;;;;2.97;2.10;;;;;;;;;;4348797;32;317154;-80
2024/04/18 00:34:23;;;;;;;2.70;1.53;;;;;;;;;;4338974;32;317442;-79
2024/04/18 00:36:50;;;;;;;1.13;1.00;;;;;;;;;;4348737;32;317016;-79
2024/04/18 00:39:17;;;;;;;3.67;1.57;;;;;;;;;;4339414;32;317063;-79
2024/04/18 00:41:43;;;;;;;2.17;1.30;;;;;;;;;;4340331;32;315619;-80
2024/04/18 00:44:11;;;;;;;1.83;1.50;;;;;;;;;;4336209;32;317324;-80
2024/04/18 00:46:39;;;;;;;7.43;1.60;;;;;;;;;;4322904;32;316830;-80
2024/04/18 00:49:11;;;;;;;2.67;1.33;;;;;;;;;;4332488;32;317257;-79
2024/04/18 00:51:38;;;;;;;1.50;1.30;;;;;;;;;;4311825;32;317382;-79
2024/04/18 00:54:05;;;;;;;2.13;1.40;;;;;;;;;;4342151;32;317853;-79
2024/04/18 00:56:32;;;;;;;1.30;1.20;;;;;;;;;;4337574;32;317156;-79
2024/04/18 00:59:03;;;;;;;1.80;1.50;;;;;;;;;;4347738;32;316077;-79
2024/04/18 01:01:29;;;;;;;1.67;1.00;;;;;;;;;;4331546;32;317277;-79
2024/04/18 01:03:59;;;;;;;5.87;1.37;;;;;;;;;;4340540;32;316401;-79
2024/04/18 01:06:29;;;;;;;6.70;1.37;;;;;;;;;;4337989;32;317282;-79
2024/04/18 01:08:58;;;;;;;1.10;1.00;;;;;;;;;;4346998;32;316708;-79
2024/04/18 01:11:24;;;;;;;3.00;1.30;;;;;;;;;;4337001;32;316485;-79
2024/04/18 01:13:52;;;;;;;1.50;1.40;;;;;;;;;;4339974;32;317191;-79
2024/04/18 01:16:17;;;;;;;1.90;1.57;;;;;;;;;;4323336;32;317108;-80
2024/04/18 01:18:45;;;;;;;4.23;1.30;;;;;;;;;;4340340;32;316667;-79
2024/04/18 01:21:11;;;;;;;5.07;1.40;;;;;;;;;;4349401;32;316492;-79
2024/04/18 01:23:39;;;;;;;4.47;1.42;;;;;;;;;;4335930;32;317093;-80
2024/04/18 01:26:06;;;;;;;1.92;1.45;;;;;;;;;;4343443;32;317043;-78
2024/04/18 01:28:39;;;;;;;1.47;1.30;;;;;;;;;;4322527;32;317853;-80
2024/04/18 01:31:06;;;;;;;2.03;1.50;;;;;;;;;;4350447;32;317049;-80
2024/04/18 01:33:33;;;;;;;1.13;1.03;;;;;;;;;;4332759;32;317072;-80
2024/04/18 01:35:59;;;;;;;1.30;1.20;;;;;;;;;;4348700;32;316519;-79
2024/04/18 01:38:27;;;;;;;1.23;1.10;;;;;;;;;;4337874;32;317107;-79
2024/04/18 01:40:53;;;;;;;2.65;1.45;;;;;;;;;;4348675;32;316817;-80
2024/04/18 01:43:22;;;;;;;1.77;1.47;;;;;;;;;;4336473;32;384343;-80
2024/04/18 01:45:49;;;;;;;1.83;1.40;;;;;;;;;;4341058;32;317163;-79
2024/04/18 01:48:16;;;;;;;2.30;1.73;;;;;;;;;;4347316;32;315483;-79
2024/04/18 01:50:43;;;;;;;1.70;1.23;;;;;;;;;;4335338;32;417678;-79
2024/04/18 01:53:12;;;;;;;2.43;1.40;;;;;;;;;;4344327;32;316825;-77
2024/04/18 01:55:39;;;;;;;1.93;1.50;;;;;;;;;;4316494;32;316986;-80
2024/04/18 01:58:06;;;;;;;2.23;1.50;;;;;;;;;;4332123;32;316409;-80
2024/04/18 02:00:35;;;;;;;2.17;1.70;;;;;;;;;;4323414;32;317307;-78
2024/04/18 02:03:07;;;;;;;3.30;1.60;;;;;;;;;;4337541;32;316951;-80
2024/04/18 02:05:32;;;;;;;8.47;1.70;;;;;;;;;;4331736;32;316902;-79
2024/04/18 02:07:59;;;;;;;4.40;2.17;;;;;;;;;;4348048;32;316413;-79
2024/04/18 02:10:26;;;;;;;3.63;1.50;;;;;;;;;;4337060;32;317035;-78
2024/04/18 02:12:57;;;;;;;1.70;1.40;;;;;;;;;;4347013;32;315392;-79
2024/04/18 02:15:25;;;;;;;3.50;1.90;;;;;;;;;;4336431;32;317144;-78
2024/04/18 02:17:52;;;;;;;3.00;1.63;;;;;;;;;;4342342;32;317240;-79
2024/04/18 02:20:19;;;;;;;2.90;1.77;;;;;;;;;;4324576;32;361414;-79
2024/04/18 02:22:47;;;;;;;2.00;1.80;;;;;;;;;;4332383;32;316780;-79
2024/04/18 02:25:14;;;;;;;2.40;1.57;;;;;;;;;;4333528;32;316595;-79
2024/04/18 02:27:42;;;;;;;2.23;1.67;;;;;;;;;;4329125;32;416225;-79
2024/04/18 02:30:10;;;;;;;9.27;1.70;;;;;;;;;;4347783;32;317095;-79
2024/04/18 02:32:39;;;;;;;2.97;1.90;;;;;;;;;;4340499;32;316778;-79
2024/04/18 02:35:05;;;;;;;4.03;1.77;;;;;;;;;;4343601;32;316578;-79
2024/04/18 02:37:35;;;;;;;2.50;1.80;;;;;;;;;;4334653;32;326286;-79
2024/04/18 02:40:00;;;;;;;2.33;1.70;;;;;;;;;;4352602;32;317290;-79
2024/04/18 02:42:28;;;;;;;2.07;1.50;;;;;;;;;;4342406;32;317397;-79
2024/04/18 02:44:54;;;;;;;5.37;1.73;;;;;;;;;;4350835;32;316714;-79
2024/04/18 02:47:22;;;;;;;2.47;1.60;;;;;;;;;;4341402;32;316746;-79
2024/04/18 02:49:48;;;;;;;2.53;1.50;;;;;;;;;;4334218;32;316370;-79
2024/04/18 02:52:15;;;;;;;2.00;1.40;;;;;;;;;;4346893;32;316829;-79
2024/04/18 02:54:43;;;;;;;7.77;2.47;;;;;;;;;;4322363;32;417819;-78
2024/04/18 02:57:11;;;;;;;5.13;4.63;;;;;;;;;;4334787;32;317039;-80
2024/04/18 02:59:38;;;;;;;2.73;1.90;;;;;;;;;;4318412;32;317265;-80
2024/04/18 03:02:05;;;;;;;11.60;3.70;;;;;;;;;;4335283;32;316749;-79
2024/04/18 03:04:32;;;;;;;2.07;1.63;;;;;;;;;;4323651;32;317307;-80
2024/04/18 03:07:00;;;;;;;5.07;1.53;;;;;;;;;;4334750;32;316777;-80
2024/04/18 03:09:26;;;;;;;4.00;2.80;;;;;;;;;;4324912;32;316636;-80
2024/04/18 03:11:58;;;;;;;3.03;2.13;;;;;;;;;;4332620;32;317058;-79
2024/04/18 03:14:25;;;;;;;2.30;1.93;;;;;;;;;;4326752;32;316806;-79
2024/04/18 03:16:55;;;;;;;2.50;1.37;;;;;;;;;;4347892;32;316727;-79
2024/04/18 03:19:22;;;;;;;1.77;1.43;;;;;;;;;;4333066;32;316511;-79
2024/04/18 03:21:49;;;;;;;1.90;1.70;;;;;;;;;;4346376;32;316801;-79
2024/04/18 03:24:17;;;;;;;1.90;1.60;;;;;;;;;;4347835;32;315294;-79
2024/04/18 03:26:43;;;;;;;4.53;3.20;;;;;;;;;;4336050;32;414770;-80
2024/04/18 03:29:12;;;;;;;1.90;1.60;;;;;;;;;;4347351;32;317015;-80
2024/04/18 03:31:42;;;;;;;3.57;1.53;;;;;;;;;;4329793;32;316386;-80
2024/04/18 03:34:08;;;;;;;4.20;3.13;;;;;;;;;;4337069;32;316835;-80
2024/04/18 03:36:41;;;;;;;4.53;3.13;;;;;;;;;;4327231;32;316415;-80
2024/04/18 03:39:10;;;;;;;4.00;2.77;;;;;;;;;;4338615;32;316746;-80
2024/04/18 03:41:37;;;;;;;4.87;2.57;;;;;;;;;;4321344;32;316713;-80
2024/04/18 03:44:06;;;;;;;2.70;1.93;;;;;;;;;;4336080;32;317251;-80
2024/04/18 03:46:34;;;;;;;3.60;2.87;;;;;;;;;;4328094;32;316725;-80
2024/04/18 03:49:04;;;;;;;4.80;3.20;;;;;;;;;;4337875;32;316823;-80
2024/04/18 03:51:30;;;;;;;9.70;4.20;;;;;;;;;;4322919;32;316753;-80
2024/04/18 03:53:59;;;;;;;10.30;3.07;;;;;;;;;;4346014;32;316480;-79
2024/04/18 03:56:26;;;;;;;2.27;1.90;;;;;;;;;;4341885;32;317396;-80
2024/04/18 03:58:56;;;;;;;3.00;2.07;;;;;;;;;;4350782;32;316672;-80
2024/04/18 04:01:23;;;;;;;7.70;3.63;;;;;;;;;;4342591;32;317463;-80
2024/04/18 04:03:51;;;;;;;11.37;4.77;;;;;;;;;;4346276;32;316291;-80
2024/04/18 04:06:17;;;;;;;4.33;2.80;;;;;;;;;;4341025;32;317781;-80
2024/04/18 04:08:45;;;;;;;6.30;2.83;;;;;;;;;;4351751;32;316873;-80
2024/04/18 04:11:12;;;;;;;3.10;2.50;;;;;;;;;;4351773;32;317694;-80
2024/04/18 04:13:40;;;;;;;6.87;4.13;;;;;;;;;;4334644;32;318053;-80
2024/04/18 04:16:06;;;;;;;8.00;4.03;;;;;;;;;;4345255;32;316670;-80
2024/04/18 04:18:34;;;;;;;3.47;2.63;;;;;;;;;;4324037;32;317319;-79
2024/04/18 04:21:02;;;;;;;3.43;1.57;;;;;;;;;;4349174;32;317071;-80
2024/04/18 04:23:32;;;;;;;2.57;2.10;;;;;;;;;;4332163;32;317140;-79
2024/04/18 04:25:59;;;;;;;3.10;2.50;;;;;;;;;;4348766;32;315589;-80
2024/04/18 04:28:27;;;;;;;3.33;2.47;;;;;;;;;;4338857;32;331170;-79
2024/04/18 04:30:53;;;;;;;3.97;3.00;;;;;;;;;;4348965;32;315615;-79
2024/04/18 04:33:19;;;;;;;7.47;2.80;;;;;;;;;;4339570;32;316877;-78
2024/04/18 04:35:47;;;;;;;2.77;2.40;;;;;;;;;;4341566;32;317165;-79
2024/04/18 04:38:16;;;;;;;22.50;13.93;;;;;;;;;;4340348;32;315802;-80
2024/04/18 04:40:44;;;;;;;6.03;4.90;;;;;;;;;;4336859;32;418152;-80
2024/04/18 04:43:09;;;;;;;6.20;4.20;;;;;;;;;;4350090;32;317520;-79
2024/04/18 04:45:36;;;;;;;5.63;4.33;;;;;;;;;;4324574;32;317032;-81
2024/04/18 04:48:02;;;;;;;14.00;6.23;;;;;;;;;;4345964;32;328617;-80
2024/04/18 04:50:29;;;;;;;11.10;8.33;;;;;;;;;;4336076;32;317558;-79
2024/04/18 04:52:54;;;;;;;14.57;8.77;;;;;;;;;;4348557;32;316797;-78
2024/04/18 04:55:24;;;;;;;9.20;7.40;;;;;;;;;;4334495;32;316933;-78
2024/04/18 04:57:50;;;;;;;7.57;3.30;;;;;;;;;;4346960;32;315736;-79
2024/04/18 05:00:21;;;;;;;4.07;2.77;;;;;;;;;;4336000;32;316812;-79
2024/04/18 05:02:48;;;;;;;3.33;2.60;;;;;;;;;;4353697;32;315584;-79
2024/04/18 05:05:16;;;;;;;4.13;3.30;;;;;;;;;;4347858;32;315655;-79
2024/04/18 05:07:43;;;;;;;6.83;3.20;;;;;;;;;;4329750;32;417944;-80
2024/04/18 05:10:10;;;;;;;6.03;3.23;;;;;;;;;;4347928;32;316778;-80
2024/04/18 05:12:38;;;;;;;4.53;3.40;;;;;;;;;;4338925;32;316628;-80
2024/04/18 05:15:09;;;;;;;7.13;3.87;;;;;;;;;;4348322;32;317008;-81
2024/04/18 05:17:36;;;;;;;4.77;3.77;;;;;;;;;;4332876;32;316426;-81
2024/04/18 05:20:04;;;;;;;5.80;2.77;;;;;;;;;;4348063;32;316500;-80
2024/04/18 05:22:32;;;;;;;5.10;2.90;;;;;;;;;;4337015;32;317315;-81
2024/04/18 05:25:01;;;;;;;5.27;2.67;;;;;;;;;;4348702;32;316507;-81
2024/04/18 05:27:26;;;;;;;3.27;2.63;;;;;;;;;;4326432;32;316982;-79
2024/04/18 05:32:43;;;;;;;4.37;2.67;;;;;;;;;;4336852;32;315487;-80
2024/04/18 05:35:10;;;;;;;3.30;2.10;;;;;;;;;;4346491;32;316637;-80
2024/04/18 05:37:40;;;;;;;6.37;5.77;;;;;;;;;;4331742;32;317053;-80
2024/04/18 05:40:09;;;;;;;10.33;9.10;;;;;;;;;;4347435;32;317273;-80
2024/04/18 05:42:37;;;;;;;8.60;7.70;;;;;;;;;;4336163;32;317693;-80
2024/04/18 05:45:06;;;;;;;7.87;5.93;;;;;;;;;;4346937;32;317020;-80
2024/04/18 05:47:34;;;;;;;4.60;3.43;;;;;;;;;;4329664;32;317069;-80
2024/04/18 05:50:05;;;;;;;1.83;1.70;;;;;;;;;;4347943;32;316759;-79
2024/04/18 05:52:33;;;;;;;5.13;2.40;;;;;;;;;;4331407;32;317324;-80
2024/04/18 05:55:00;;;;;;;2.00;1.80;;;;;;;;;;4332009;33;317458;-80
2024/04/18 05:57:36;;;;;;;2.57;2.07;;;;;;;;;;4322865;32;317245;-80
2024/04/18 06:00:11;;;;;;;2.83;1.97;;;;;;;;;;4331239;32;316817;-80
2024/04/18 06:02:39;;;;;;;1.70;1.60;;;;;;;;;;4323207;32;317247;-80
2024/04/18 06:05:10;;;;;;;2.13;1.67;;;;;;;;;;4330995;32;317378;-80
2024/04/18 06:07:39;;;;;;;1.92;1.73;;;;;;;;;;4316375;32;326955;-79
2024/04/18 06:10:06;;;;;;;5.13;3.37;;;;;;;;;;4336835;32;316796;-79
2024/04/18 06:12:33;;;;;;;4.17;3.57;;;;;;;;;;4332867;32;317552;-79
2024/04/18 06:15:01;;;;;;;11.67;3.37;;;;;;;;;;4346415;32;317496;-77
2024/04/18 06:17:29;;;;;;;3.97;2.57;;;;;;;;;;4335568;32;318407;-77
2024/04/18 06:19:56;;;;;;;2.47;1.80;;;;;;;;;;4347396;32;317507;-78
2024/04/18 06:22:22;;;;;;;2.57;1.60;;;;;;;;;;4338337;32;317244;-76
2024/04/18 06:24:50;;;;;;;1.50;1.37;;;;;;;;;;4345200;32;317228;-77
2024/04/18 06:27:17;;;;;;;1.57;1.20;;;;;;;;;;4336644;32;317304;-78
2024/04/18 06:29:43;;;;;;;2.43;1.70;;;;;;;;;;4339233;32;317210;-79
2024/04/18 06:32:10;;;;;;;1.93;1.80;;;;;;;;;;4339256;32;356669;-80
2024/04/18 06:34:38;;;;;;;16.30;8.93;;;;;;;;;;4335922;32;317371;-80
2024/04/18 06:37:06;;;;;;;28.90;14.67;;;;;;;;;;4347200;32;318342;-79
2024/04/18 06:39:32;;;;;;;16.20;11.20;;;;;;;;;;4332016;32;319264;-81
2024/04/18 06:41:59;;;;;;;2.53;2.33;;;;;;;;;;4347787;32;319313;-79
2024/04/18 06:44:26;;;;;;;7.73;2.80;;;;;;;;;;4336927;32;316889;-79
2024/04/18 06:46:52;;;;;;;3.00;2.50;;;;;;;;;;4348057;32;317136;-79
2024/04/18 06:49:19;;;;;;;2.43;1.87;;;;;;;;;;4336955;32;317265;-79
2024/04/18 06:51:47;;;;;;;2.17;1.97;;;;;;;;;;4341748;32;328987;-80
2024/04/18 06:54:14;;;;;;;2.03;1.70;;;;;;;;;;4347971;32;317122;-80
2024/04/18 06:56:40;;;;;;;4.07;1.63;;;;;;;;;;4338454;32;317315;-81
2024/04/18 06:59:07;;;;;;;2.23;1.60;;;;;;;;;;4350693;32;317360;-81
2024/04/18 07:01:34;;;;;;;2.13;1.63;;;;;;;;;;4322397;32;353119;-79
2024/04/18 07:04:06;;;;;;;1.87;1.30;;;;;;;;;;4337267;32;317181;-80
2024/04/18 07:06:33;;;;;;;2.07;1.33;;;;;;;;;;4329597;32;317457;-80
2024/04/18 07:09:01;;;;;;;14.67;3.40;;;;;;;;;;4352570;32;322303;-81
2024/04/18 07:11:28;;;;;;;15.50;3.03;;;;;;;;;;4338558;32;318301;-80
2024/04/18 07:13:55;;;;;;;32.57;6.80;;;;;;;;;;4352533;32;318555;-80
2024/04/18 07:16:22;;;;;;;9.37;2.60;;;;;;;;;;4342020;32;318472;-80
2024/04/18 07:18:48;;;;;;;10.63;3.77;;;;;;;;;;4349194;32;317110;-79
2024/04/18 07:21:15;;;;;;;14.40;3.50;;;;;;;;;;4349959;32;341708;-81
2024/04/18 07:23:42;;;;;;;3.33;2.20;;;;;;;;;;4332552;32;417256;-81
2024/04/18 07:26:10;;;;;;;4.13;2.03;;;;;;;;;;4352406;32;317417;-79
2024/04/18 07:28:37;;;;;;;3.20;1.83;;;;;;;;;;4342702;32;317038;-81
2024/04/18 07:31:04;;;;;;;1.83;1.60;;;;;;;;;;4349913;32;317309;-78
2024/04/18 07:33:32;;;;;;;1.90;1.50;;;;;;;;;;4331933;32;317618;-79
2024/04/18 07:35:59;;;;;;;2.67;1.70;;;;;;;;;;4348232;32;317411;-81
2024/04/18 07:38:26;;;;;;;3.23;2.00;;;;;;;;;;4338528;32;317310;-80
2024/04/18 07:40:53;;;;;;;2.00;1.77;;;;;;;;;;4348081;32;317255;-80
2024/04/18 07:43:22;;;;;;;2.00;1.60;;;;;;;;;;4335753;32;356288;-79
2024/04/18 07:45:48;;;;;;;2.10;1.70;;;;;;;;;;4341788;32;317251;-80
2024/04/18 07:48:15;;;;;;;4.97;2.13;;;;;;;;;;4349833;32;317283;-80
2024/04/18 07:50:42;;;;;;;3.30;2.00;;;;;;;;;;4342300;32;417613;-81
2024/04/18 07:53:08;;;;;;;2.53;2.13;;;;;;;;;;4355273;32;316707;-81
2024/04/18 07:55:35;;;;;;;2.53;1.50;;;;;;;;;;4338245;32;324704;-81
2024/04/18 07:58:02;;;;;;;3.30;2.23;;;;;;;;;;4351515;32;316295;-78
2024/04/18 08:00:30;;;;;;;3.40;2.43;;;;;;;;;;4351539;32;317019;-79
2024/04/18 08:02:56;;;;;;;2.27;1.73;;;;;;;;;;4365245;32;315952;-79
2024/04/18 08:05:23;;;;;;;2.00;1.50;;;;;;;;;;4356355;32;315752;-79
2024/04/18 08:07:50;;;;;;;1.90;1.57;;;;;;;;;;4355616;32;316428;-79
2024/04/18 08:10:17;;;;;;;1.73;1.30;;;;;;;;;;4338795;32;336650;-80
2024/04/18 08:12:44;;;;;;;2.00;1.53;;;;;;;;;;4349816;32;317328;-81
2024/04/18 08:15:10;;;;;;;5.50;1.37;;;;;;;;;;4349783;32;317507;-79
2024/04/18 08:17:38;;;;;;;9.03;1.23;;;;;;;;;;4317192;32;317170;-81
2024/04/18 08:20:06;;;;;;;1.10;1.00;;;;;;;;;;4324660;32;317489;-81
2024/04/18 08:22:34;;;;;;;2.03;1.62;;;;;;;;;;4325383;32;317300;-79
2024/04/18 08:25:02;;;;;;;1.30;1.20;;;;;;;;;;4347429;32;316464;-80
2024/04/18 08:27:29;;;;;;;1.45;1.33;;;;;;;;;;4331693;32;316953;-80
2024/04/18 08:29:55;;;;;;;1.30;0.90;;;;;;;;;;4338398;32;317292;-81
2024/04/18 08:32:22;;;;;;;1.10;1.00;;;;;;;;;;4326937;32;317343;-80
2024/04/18 08:34:50;;;;;;;1.60;0.90;;;;;;;;;;4347989;32;317419;-81
2024/04/18 08:37:17;;;;;;;1.40;1.07;;;;;;;;;;4340838;32;317611;-79
2024/04/18 08:39:43;;;;;;;1.15;1.05;;;;;;;;;;4344172;32;317076;-79
2024/04/18 08:42:12;;;;;;;1.08;0.98;;;;;;;;;;4349660;32;317099;-80
2024/04/18 08:44:39;;;;;;;1.60;0.93;;;;;;;;;;4339589;32;317533;-81
2024/04/18 08:47:08;;;;;;;3.85;1.90;;;;;;;;;;4350552;32;317009;-80
2024/04/18 08:49:38;;;;;;;6.57;5.40;;;;;;;;;;4333373;32;317314;-82
2024/04/18 08:52:07;;;;;;;7.33;2.27;;;;;;;;;;4334280;32;317504;-81
2024/04/18 08:54:34;;;;;;;7.63;5.20;;;;;;;;;;4310151;32;317416;-80
2024/04/18 08:57:05;;;;;;;6.93;4.93;;;;;;;;;;4319916;32;333853;-80
2024/04/18 08:59:32;;;;;;;7.40;5.60;;;;;;;;;;4311869;32;317279;-80
2024/04/18 09:02:00;;;;;;;5.83;4.23;;;;;;;;;;4339563;32;328774;-80
2024/04/18 09:04:27;;;;;;;1.93;1.40;;;;;;;;;;4338915;32;316801;-80
2024/04/18 09:06:54;;;;;;;3.47;1.90;;;;;;;;;;4350990;32;316346;-80
2024/04/18 09:09:22;;;;;;;5.27;1.40;;;;;;;;;;4338910;32;317711;-81
2024/04/18 09:11:48;;;;;;;1.50;1.40;;;;;;;;;;4343051;32;317252;-79
2024/04/18 09:14:15;;;;;;;2.05;1.25;;;;;;;;;;4349450;32;317548;-80
2024/04/18 09:16:43;;;;;;;1.77;1.30;;;;;;;;;;4335921;32;416746;-80
2024/04/18 09:19:10;;;;;;;0.82;0.80;;;;;;;;;;4349673;32;317390;-79
2024/04/18 09:21:37;;;;;;;1.23;1.10;;;;;;;;;;4333745;32;317371;-79
2024/04/18 09:24:06;;;;;;;1.97;1.00;;;;;;;;;;4347681;32;354332;-79
2024/04/18 09:26:34;;;;;;;6.23;2.53;;;;;;;;;;4340539;32;317275;-79
2024/04/18 09:29:01;;;;;;;3.93;2.60;;;;;;;;;;4349631;32;318274;-81
2024/04/18 09:31:28;;;;;;;1.50;1.13;;;;;;;;;;4337791;32;316834;-81
2024/04/18 09:33:55;;;;;;;3.20;2.30;;;;;;;;;;4344759;32;317479;-80
2024/04/18 09:36:23;;;;;;;2.60;1.80;;;;;;;;;;4336888;32;317303;-80
2024/04/18 09:38:50;;;;;;;2.57;1.90;;;;;;;;;;4346893;32;317555;-80
2024/04/18 09:41:21;;;;;;;4.07;2.55;;;;;;;;;;4339065;32;317401;-80
2024/04/18 09:43:56;;;;;;;2.90;1.85;;;;;;;;;;4342952;32;317147;-80
2024/04/18 09:46:24;;;;;;;2.35;2.15;;;;;;;;;;4338281;32;349004;-78
2024/04/18 09:48:53;;;;;;;2.62;2.00;;;;;;;;;;4350070;32;317227;-81
2024/04/18 09:51:21;;;;;;;4.50;1.33;;;;;;;;;;4340369;32;317158;-81
2024/04/18 09:53:49;;;;;;;2.92;1.33;;;;;;;;;;4333404;32;317637;-80
2024/04/18 09:56:17;;;;;;;2.33;1.30;;;;;;;;;;4349458;32;317796;-80
2024/04/18 09:58:45;;;;;;;4.53;2.27;;;;;;;;;;4338255;32;417833;-80
2024/04/18 10:01:15;;;;;;;2.47;1.97;;;;;;;;;;4351690;32;317552;-81
2024/04/18 10:03:43;;;;;;;6.20;2.28;;;;;;;;;;4332817;32;418006;-81
2024/04/18 10:06:12;;;;;;;4.03;3.05;;;;;;;;;;4352988;32;317407;-80
2024/04/18 10:08:42;;;;;;;4.80;3.07;;;;;;;;;;4342483;32;318024;-80
2024/04/18 10:11:11;;;;;;;2.63;2.43;;;;;;;;;;4351827;32;340798;-79
2024/04/18 10:13:38;;;;;;;4.55;2.83;;;;;;;;;;4336194;32;318115;-81
2024/04/18 10:16:09;;;;;;;2.37;1.77;;;;;;;;;;4351522;32;317162;-81
2024/04/18 10:18:38;;;;;;;3.83;2.30;;;;;;;;;;4341533;32;317693;-81
2024/04/18 10:21:09;;;;;;;3.90;2.70;;;;;;;;;;4352794;32;316733;-81
2024/04/18 10:23:36;;;;;;;2.75;1.65;;;;;;;;;;4335301;32;317702;-80
2024/04/18 10:26:03;;;;;;;17.77;8.85;;;;;;;;;;4352543;32;317354;-80
2024/04/18 10:28:33;;;;;;;7.18;4.25;;;;;;;;;;4341150;32;318474;-80
2024/04/18 10:31:06;;;;;;;4.45;2.50;;;;;;;;;;4344240;32;318077;-80
2024/04/18 10:33:35;;;;;;;1.87;1.37;;;;;;;;;;4327821;32;317879;-82
2024/04/18 10:36:04;;;;;;;2.65;1.50;;;;;;;;;;4351053;32;317531;-80
2024/04/18 10:38:33;;;;;;;1.20;1.10;;;;;;;;;;4339026;32;317869;-79
2024/04/18 10:41:03;;;;;;;2.60;1.58;;;;;;;;;;4351333;32;316507;-79
2024/04/18 10:43:30;;;;;;;2.45;1.60;;;;;;;;;;4329803;32;317801;-79
2024/04/18 10:45:56;;;;;;;3.10;1.87;;;;;;;;;;4352459;32;317309;-79
2024/04/18 10:48:23;;;;;;;2.22;1.65;;;;;;;;;;4341867;32;318106;-79
2024/04/18 10:50:51;;;;;;;2.33;1.62;;;;;;;;;;4351880;32;317366;-79
2024/04/18 10:53:20;;;;;;;5.05;1.58;;;;;;;;;;4342700;32;317329;-79
2024/04/18 10:55:47;;;;;;;2.17;1.35;;;;;;;;;;4343435;32;316492;-79
2024/04/18 10:58:15;;;;;;;1.85;1.37;;;;;;;;;;4350639;32;317561;-80
2024/04/18 11:00:42;;;;;;;2.00;1.73;;;;;;;;;;4338253;32;417498;-80
2024/04/18 11:03:09;;;;;;;1.27;1.10;;;;;;;;;;4350928;32;317638;-81
2024/04/18 11:05:37;;;;;;;1.80;1.33;;;;;;;;;;4334335;32;317973;-81
2024/04/18 11:08:04;;;;;;;4.12;2.45;;;;;;;;;;4351096;32;317471;-81
2024/04/18 11:10:34;;;;;;;3.05;2.08;;;;;;;;;;4340102;32;317865;-80
2024/04/18 11:13:02;;;;;;;2.22;1.55;;;;;;;;;;4350457;32;317308;-79
2024/04/18 11:15:29;;;;;;;2.00;1.20;;;;;;;;;;4335934;32;317737;-79
2024/04/18 11:17:56;;;;;;;1.65;1.12;;;;;;;;;;4351608;32;317172;-80
2024/04/18 11:20:23;;;;;;;1.50;1.30;;;;;;;;;;4340226;32;317311;-81
2024/04/18 11:22:50;;;;;;;2.60;1.15;;;;;;;;;;4351119;32;317482;-80
2024/04/18 11:25:17;;;;;;;3.47;1.20;;;;;;;;;;4349230;32;317327;-81
2024/04/18 11:27:45;;;;;;;4.20;1.30;;;;;;;;;;4343300;32;317972;-81
2024/04/18 11:30:17;;;;;;;4.10;1.45;;;;;;;;;;4349446;32;318434;-80
2024/04/18 11:32:43;;;;;;;1.60;1.37;;;;;;;;;;4335272;32;416985;-80
2024/04/18 11:35:10;;;;;;;1.42;1.12;;;;;;;;;;4349498;32;317653;-80
2024/04/18 11:37:37;;;;;;;4.72;1.85;;;;;;;;;;4332501;32;317392;-79
2024/04/18 11:40:06;;;;;;;4.95;2.00;;;;;;;;;;4349987;32;317533;-81
2024/04/18 11:42:32;;;;;;;2.65;1.30;;;;;;;;;;4338389;32;317223;-80
2024/04/18 11:45:00;;;;;;;2.62;1.00;;;;;;;;;;4350780;32;317810;-82
2024/04/18 11:47:27;;;;;;;2.45;1.73;;;;;;;;;;4338930;32;317307;-80
2024/04/18 11:49:54;;;;;;;2.70;1.60;;;;;;;;;;4348420;32;317849;-81
2024/04/18 11:52:21;;;;;;;2.83;1.40;;;;;;;;;;4341108;32;317202;-80
2024/04/18 11:54:48;;;;;;;2.00;1.10;;;;;;;;;;4351138;32;317812;-80
2024/04/18 11:57:14;;;;;;;1.20;1.08;;;;;;;;;;4346181;32;317091;-81
2024/04/18 11:59:43;;;;;;;2.87;1.50;;;;;;;;;;4334640;32;317854;-80
2024/04/18 12:02:12;;;;;;;3.05;2.08;;;;;;;;;;4351576;32;317261;-80
2024/04/18 12:04:39;;;;;;;2.75;1.40;;;;;;;;;;4340477;32;317548;-81
2024/04/18 12:07:06;;;;;;;2.80;1.60;;;;;;;;;;4344876;32;317509;-80
2024/04/18 12:09:36;;;;;;;2.10;1.20;;;;;;;;;;4319171;32;349697;-80
2024/04/18 12:12:03;;;;;;;3.62;1.45;;;;;;;;;;4337911;32;317151;-80
2024/04/18 12:14:30;;;;;;;1.17;1.08;;;;;;;;;;4333795;32;317371;-80
2024/04/18 12:16:57;;;;;;;2.37;0.98;;;;;;;;;;4343618;32;317243;-80
2024/04/18 12:19:25;;;;;;;10.23;2.53;;;;;;;;;;4332221;32;317648;-81
2024/04/18 12:21:52;;;;;;;3.15;1.70;;;;;;;;;;4335935;32;318300;-81
2024/04/18 12:24:19;;;;;;;5.03;1.65;;;;;;;;;;4325673;32;317604;-80
2024/04/18 12:26:45;;;;;;;1.10;1.00;;;;;;;;;;4349574;32;317346;-80
2024/04/18 12:29:12;;;;;;;2.85;1.10;;;;;;;;;;4349976;32;317596;-80
2024/04/18 12:31:39;;;;;;;0.82;0.70;;;;;;;;;;4334326;32;316589;-81
2024/04/18 12:34:04;;;;;;;2.70;1.20;;;;;;;;;;4349534;32;317877;-81
2024/04/18 12:36:32;;;;;;;2.40;1.52;;;;;;;;;;4338761;32;332642;-81
2024/04/18 12:38:59;;;;;;;2.50;1.10;;;;;;;;;;4350690;32;317666;-79
2024/04/18 12:41:26;;;;;;;1.58;1.05;;;;;;;;;;4339006;32;317320;-81
2024/04/18 12:43:52;;;;;;;5.78;1.25;;;;;;;;;;4344472;32;317801;-79
2024/04/18 12:46:19;;;;;;;1.65;1.00;;;;;;;;;;4340478;32;317217;-80
2024/04/18 12:48:46;;;;;;;2.20;1.50;;;;;;;;;;4349728;32;317855;-80
2024/04/18 12:51:13;;;;;;;2.83;1.25;;;;;;;;;;4349471;32;317315;-81
2024/04/18 12:53:41;;;;;;;2.50;0.90;;;;;;;;;;4334338;32;317654;-80
2024/04/18 12:56:08;;;;;;;1.98;1.30;;;;;;;;;;4349751;32;317023;-80
2024/04/18 12:58:35;;;;;;;1.33;0.80;;;;;;;;;;4338454;32;317367;-81
2024/04/18 13:01:01;;;;;;;2.37;1.35;;;;;;;;;;4348426;32;317456;-79
2024/04/18 13:03:30;;;;;;;3.58;2.35;;;;;;;;;;4336700;32;317128;-80
2024/04/18 13:05:56;;;;;;;1.65;1.17;;;;;;;;;;4349608;32;316605;-81
2024/04/18 13:08:23;;;;;;;2.15;1.62;;;;;;;;;;4337760;32;317229;-80
2024/04/18 13:10:51;;;;;;;8.07;1.23;;;;;;;;;;4347979;32;317278;-81
2024/04/18 13:13:18;;;;;;;1.62;1.00;;;;;;;;;;4339851;32;317733;-80
2024/04/18 13:15:45;;;;;;;2.12;1.23;;;;;;;;;;4343606;32;317231;-80
2024/04/18 13:18:11;;;;;;;2.47;1.48;;;;;;;;;;4347666;32;317413;-81
2024/04/18 13:20:41;;;;;;;1.15;1.05;;;;;;;;;;4339177;32;317609;-80
2024/04/18 13:23:07;;;;;;;1.55;1.10;;;;;;;;;;4349040;32;317054;-79
2024/04/18 13:25:34;;;;;;;2.30;1.30;;;;;;;;;;4332600;32;317736;-79
2024/04/18 13:28:02;;;;;;;2.45;1.30;;;;;;;;;;4348522;32;317275;-80
2024/04/18 13:30:29;;;;;;;12.07;4.97;;;;;;;;;;4338441;32;317152;-81
2024/04/18 13:32:55;;;;;;;5.50;2.00;;;;;;;;;;4346900;32;318216;-79
2024/04/18 13:35:22;;;;;;;2.65;1.30;;;;;;;;;;4337929;32;317286;-82
2024/04/18 13:37:49;;;;;;;2.45;1.52;;;;;;;;;;4340104;32;317131;-79
2024/04/18 13:40:16;;;;;;;8.30;2.78;;;;;;;;;;4345426;32;316564;-81
2024/04/18 13:42:43;;;;;;;3.15;2.70;;;;;;;;;;4334289;32;417857;-79
2024/04/18 13:45:11;;;;;;;1.73;1.50;;;;;;;;;;4346996;32;316860;-81
2024/04/18 13:47:38;;;;;;;5.15;1.60;;;;;;;;;;4330467;32;317272;-82
2024/04/18 13:50:05;;;;;;;1.77;1.10;;;;;;;;;;4347691;32;317329;-81
2024/04/18 13:52:30;;;;;;;7.82;2.25;;;;;;;;;;4337284;32;317887;-79
2024/04/18 13:54:57;;;;;;;8.73;4.22;;;;;;;;;;4338725;32;316604;-79
2024/04/18 13:57:24;;;;;;;7.07;3.97;;;;;;;;;;4329110;32;317283;-79
2024/04/18 13:59:52;;;;;;;4.07;2.05;;;;;;;;;;4335372;32;317335;-81
2024/04/18 14:02:20;;;;;;;2.25;1.52;;;;;;;;;;4334849;32;317268;-81
2024/04/18 14:04:47;;;;;;;3.03;2.12;;;;;;;;;;4343172;32;317251;-79
2024/04/18 14:07:14;;;;;;;2.53;1.50;;;;;;;;;;4344414;32;316692;-82
2024/04/18 14:09:44;;;;;;;4.28;1.75;;;;;;;;;;4328629;32;317437;-81
2024/04/18 14:12:10;;;;;;;2.97;1.40;;;;;;;;;;4343437;32;330815;-80
2024/04/18 14:14:37;;;;;;;3.55;2.05;;;;;;;;;;4325446;32;317599;-81
2024/04/18 14:19:50;;;;;;;7.05;5.20;;;;;;;;;;4328325;32;389586;-81
2024/04/18 14:22:16;;;;;;;9.00;4.50;;;;;;;;;;4347679;32;317498;-81
2024/04/18 14:24:43;;;;;;;9.43;1.60;;;;;;;;;;4336470;32;418459;-80
2024/04/18 14:27:10;;;;;;;3.62;1.83;;;;;;;;;;4349098;32;316376;-80
2024/04/18 14:29:37;;;;;;;2.25;1.20;;;;;;;;;;4333140;32;317135;-80
2024/04/18 14:32:04;;;;;;;1.33;1.10;;;;;;;;;;4352555;32;317673;-80
2024/04/18 14:34:30;;;;;;;1.25;1.10;;;;;;;;;;4343018;32;317263;-80
2024/04/18 14:36:58;;;;;;;2.00;1.35;;;;;;;;;;4352958;32;316520;-80